Time;durP1;ratioP1;P1;durP2;ratioP2;P2;SDS_P1;SDS_P2;PMS_P1;PMS_P2;Temp;Humidity;BMP_temperature;BMP_pressure;BME280_temperature;BME280_humidity;BME280_pressure;Samples;Min_cycle;Max_cycle;Signal;HPM_P1;HPM_P2
2021/07/24 00:07:52;;;;;;;11.83;10.73;;;23.30;38.40;;;;;;4788943;30;20426;-83
2021/07/24 00:11:16;;;;;;;;;;;;;;;;;;;;;
2021/07/24 00:17:59;;;;;;;;;;;;;;;;;;;;;
2021/07/24 00:21:25;;;;;;;13.57;12.50;;;23.30;38.50;;;;;;4766164;29;20454;-83
2021/07/24 00:24:38;;;;;;;13.37;12.17;;;23.30;38.60;;;;;;4807478;29;20461;-82
2021/07/24 00:28:11;;;;;;;;;;;;;;;;;;;;;
2021/07/24 00:45:34;;;;;;;;;;;;;;;;;;;;;
2021/07/24 00:55:54;;;;;;;13.20;12.10;;;23.20;38.70;;;;;;4716644;30;21064;-83
2021/07/24 00:58:55;;;;;;;12.70;11.70;;;23.30;38.80;;;;;;4711563;30;21025;-83
2021/07/24 01:04:36;;;;;;;12.87;11.77;;;23.20;38.70;;;;;;4807394;29;20995;-83
2021/07/24 01:17:53;;;;;;;12.20;11.30;;;23.20;38.90;;;;;;4772987;30;20441;-83
2021/07/24 01:21:07;;;;;;;13.13;11.90;;;23.20;38.90;;;;;;4772754;30;20481;-84
2021/07/24 01:23:26;;;;;;;12.27;11.17;;;23.20;38.90;;;;;;4775537;29;20886;-83
2021/07/24 01:26:06;;;;;;;13.13;12.03;;;23.20;39.00;;;;;;4773094;30;20430;-82
2021/07/24 01:28:55;;;;;;;13.30;12.00;;;23.20;38.90;;;;;;4773035;30;20482;-83
2021/07/24 01:31:30;;;;;;;12.13;11.23;;;23.20;39.10;;;;;;4785508;29;20450;-82
2021/07/24 01:34:13;;;;;;;13.27;12.27;;;23.20;39.00;;;;;;4824634;29;20476;-83
2021/07/24 01:36:50;;;;;;;13.73;12.63;;;23.20;39.00;;;;;;4811226;29;20434;-83
2021/07/24 01:42:59;;;;;;;13.20;12.10;;;23.20;39.00;;;;;;4769702;29;20952;-82
2021/07/24 01:46:00;;;;;;;13.10;12.00;;;23.20;39.00;;;;;;4824543;29;20410;-82
2021/07/24 01:55:52;;;;;;;;;;;;;;;;;;;;;
2021/07/24 01:58:55;;;;;;;13.23;12.17;;;23.20;39.10;;;;;;4971131;23;21427;-82
2021/07/24 02:01:56;;;;;;;13.83;12.63;;;23.20;39.10;;;;;;4845244;29;20809;-82
2021/07/24 02:04:42;;;;;;;14.37;13.23;;;23.20;39.10;;;;;;4835126;29;20426;-82
2021/07/24 02:07:34;;;;;;;14.10;13.00;;;23.20;39.10;;;;;;4832668;29;20432;-83
2021/07/24 02:16:52;;;;;;;;;;;;;;;;;;;;;
2021/07/24 02:23:17;;;;;;;;;;;;;;;;;;;;;
2021/07/24 02:36:56;;;;;;;;;;;;;;;;;;;;;
2021/07/24 02:40:16;;;;;;;12.70;11.50;;;23.20;39.20;;;;;;4750093;30;20457;-81
2021/07/24 02:43:44;;;;;;;;;;;;;;;;;;;;;
2021/07/24 02:50:28;;;;;;;13.70;12.50;;;23.20;39.20;;;;;;4736200;30;20812;-83
2021/07/24 02:53:30;;;;;;;11.70;10.90;;;23.20;39.50;;;;;;4718396;30;20503;-83
2021/07/24 02:56:44;;;;;;;12.40;11.47;;;23.20;39.20;;;;;;4731328;30;20461;-83
2021/07/24 03:00:03;;;;;;;;;;;;;;;;;;;;;
2021/07/24 03:10:12;;;;;;;;;;;;;;;;;;;;;
2021/07/24 03:12:47;;;;;;;12.97;11.97;;;23.20;39.30;;;;;;4811866;29;20510;-82
2021/07/24 03:16:12;;;;;;;12.60;11.50;;;23.20;39.30;;;;;;4825113;29;20476;-83
2021/07/24 03:19:13;;;;;;;13.27;12.17;;;23.20;39.30;;;;;;4813768;29;20597;-83
2021/07/24 03:29:00;;;;;;;13.13;12.17;;;23.20;39.40;;;;;;4772923;30;20475;-83
2021/07/24 03:31:26;;;;;;;13.60;12.20;;;23.20;39.30;;;;;;4769198;30;20940;-81
2021/07/24 03:34:31;;;;;;;12.90;11.90;;;23.20;39.30;;;;;;4754470;30;20472;-82
2021/07/24 03:40:36;;;;;;;;;;;;;;;;;;;;;
2021/07/24 03:43:16;;;;;;;12.50;11.50;;;23.20;39.40;;;;;;4754474;30;20437;-82
2021/07/24 03:45:53;;;;;;;13.87;12.60;;;23.20;39.50;;;;;;4755899;30;20433;-83
2021/07/24 03:48:25;;;;;;;12.73;11.73;;;23.20;39.40;;;;;;4763094;30;20549;-83
2021/07/24 03:50:54;;;;;;;13.00;12.00;;;23.20;39.40;;;;;;4775557;30;20938;-83
2021/07/24 03:53:24;;;;;;;12.83;11.87;;;23.20;39.40;;;;;;4806407;29;20433;-83
2021/07/24 03:56:24;;;;;;;12.53;11.50;;;23.20;39.50;;;;;;4824649;29;20782;-83
2021/07/24 03:59:19;;;;;;;13.17;12.17;;;23.20;39.40;;;;;;4810160;29;20442;-84
2021/07/24 04:02:07;;;;;;;13.13;11.97;;;23.20;39.50;;;;;;4810278;29;20419;-83
2021/07/24 04:04:52;;;;;;;12.80;11.60;;;23.20;39.50;;;;;;4823746;29;20549;-82
2021/07/24 04:07:26;;;;;;;12.73;11.67;;;23.20;39.60;;;;;;4825586;29;20532;-82
2021/07/24 04:09:58;;;;;;;10.40;9.60;;;23.20;39.80;;;;;;4823730;29;20958;-82
2021/07/24 04:12:44;;;;;;;13.70;12.60;;;23.20;40.00;;;;;;4810274;29;20509;-82
2021/07/24 04:15:14;;;;;;;12.83;11.73;;;23.20;40.10;;;;;;4822682;29;20469;-82
2021/07/24 04:17:43;;;;;;;13.43;12.33;;;23.20;39.90;;;;;;4808553;29;20454;-82
2021/07/24 04:20:15;;;;;;;12.90;11.70;;;23.20;39.90;;;;;;4823245;29;20434;-82
2021/07/24 04:22:43;;;;;;;12.70;11.60;;;23.20;40.00;;;;;;4822935;29;20802;-81
2021/07/24 04:28:36;;;;;;;12.77;11.67;;;23.20;40.00;;;;;;4786656;29;20447;-83
2021/07/24 04:31:30;;;;;;;12.93;12.00;;;23.20;40.00;;;;;;4801132;29;20847;-82
2021/07/24 04:34:22;;;;;;;15.57;14.20;;;23.20;40.10;;;;;;4807285;29;20265;-82
2021/07/24 05:06:25;;;;;;;14.07;12.70;;;23.20;40.10;;;;;;4826432;29;20485;-82
2021/07/24 05:09:38;;;;;;;14.10;12.90;;;23.10;40.00;;;;;;4838644;29;20457;-82
2021/07/24 05:19:42;;;;;;;13.17;12.07;;;23.20;40.10;;;;;;4753896;30;20521;-83
2021/07/24 05:22:39;;;;;;;12.33;11.33;;;23.20;40.20;;;;;;4739705;30;20453;-83
2021/07/24 05:26:07;;;;;;;12.80;11.70;;;23.20;40.20;;;;;;4718948;30;20439;-84
2021/07/24 05:29:43;;;;;;;12.17;11.20;;;23.20;40.30;;;;;;4754511;30;20507;-83
2021/07/24 05:33:21;;;;;;;13.33;12.23;;;23.20;40.30;;;;;;4720118;30;20569;-84
2021/07/24 05:39:34;;;;;;;13.73;12.37;;;23.20;40.50;;;;;;4718998;30;20445;-83
2021/07/24 05:46:48;;;;;;;12.90;11.73;;;23.20;40.40;;;;;;4701507;30;20427;-84
2021/07/24 05:53:48;;;;;;;15.07;13.70;;;23.20;40.70;;;;;;4716682;30;20430;-83
2021/07/24 05:57:21;;;;;;;13.27;12.07;;;23.20;40.60;;;;;;4716663;30;20462;-82
2021/07/24 06:20:03;;;;;;;13.80;12.60;;;23.20;40.50;;;;;;6301525;22;20460;-83
2021/07/24 06:23:02;;;;;;;12.77;11.73;;;23.20;40.70;;;;;;6319130;22;20438;-83
2021/07/24 06:26:08;;;;;;;13.57;12.40;;;23.20;40.70;;;;;;6329223;22;20387;-82
2021/07/24 07:35:10;;;;;;;16.57;14.83;;;23.10;40.70;;;;;;6220516;23;20385;-83
2021/07/24 07:38:20;;;;;;;14.87;13.57;;;23.10;40.80;;;;;;6223358;23;20421;-82
2021/07/24 07:48:20;;;;;;;14.13;12.93;;;23.10;40.90;;;;;;6126210;23;20516;-83
2021/07/24 07:50:48;;;;;;;14.63;13.33;;;23.10;40.80;;;;;;6077020;23;20409;-82
2021/07/24 07:54:07;;;;;;;15.60;14.10;;;23.10;41.10;;;;;;6148844;23;20434;-83
2021/07/24 08:00:28;;;;;;;13.97;12.87;;;23.10;41.10;;;;;;6125229;23;20453;-81
2021/07/24 08:03:28;;;;;;;14.80;13.50;;;23.10;40.80;;;;;;6094233;23;20461;-83
2021/07/24 08:06:49;;;;;;;15.23;13.83;;;23.10;40.80;;;;;;6095905;23;20402;-82
2021/07/24 08:10:10;;;;;;;14.30;13.10;;;23.10;40.80;;;;;;6010350;23;20457;-83
2021/07/24 08:17:15;;;;;;;15.13;13.80;;;23.10;41.20;;;;;;6011149;23;20379;-83
2021/07/24 08:19:44;;;;;;;14.40;13.23;;;23.10;41.30;;;;;;5968611;23;20424;-83
2021/07/24 08:22:10;;;;;;;13.77;12.57;;;23.10;41.40;;;;;;6068927;23;20411;-83
2021/07/24 08:24:50;;;;;;;13.70;12.30;;;23.10;41.40;;;;;;6068183;23;20408;-82
2021/07/24 08:28:19;;;;;;;14.23;12.93;;;23.10;41.30;;;;;;6067536;23;20560;-83
2021/07/24 08:31:10;;;;;;;12.97;11.87;;;23.10;41.50;;;;;;6068627;23;20390;-84
2021/07/24 08:33:43;;;;;;;14.20;12.90;;;23.10;41.60;;;;;;6082045;23;20405;-83
2021/07/24 08:36:55;;;;;;;14.37;13.17;;;23.10;41.70;;;;;;6081012;23;20419;-83
2021/07/24 08:39:38;;;;;;;14.17;12.97;;;23.10;41.70;;;;;;6218317;22;20412;-83
2021/07/24 08:42:39;;;;;;;13.87;12.77;;;23.10;42.10;;;;;;6265940;22;20381;-82
2021/07/24 08:48:22;;;;;;;14.03;12.73;;;23.20;42.40;;;;;;6279350;22;20436;-84
2021/07/24 08:54:55;;;;;;;14.70;13.37;;;23.20;42.50;;;;;;6278037;22;20436;-83
2021/07/24 08:58:21;;;;;;;14.60;13.30;;;23.20;43.10;;;;;;6276648;22;20379;-82
2021/07/24 09:13:01;;;;;;;14.47;13.00;;;23.20;41.90;;;;;;6155454;23;20774;-82
2021/07/24 09:23:17;;;;;;;14.47;13.27;;;23.20;42.00;;;;;;6096184;23;20383;-81
2021/07/24 09:30:39;;;;;;;14.30;13.10;;;23.30;41.50;;;;;;6141107;23;20428;-81
2021/07/24 09:44:17;;;;;;;13.23;12.00;;;23.30;41.50;;;;;;5926787;24;20463;-82
2021/07/24 09:51:10;;;;;;;13.47;12.47;;;23.30;41.60;;;;;;6040651;23;20775;-82
2021/07/24 10:01:15;;;;;;;13.83;12.63;;;23.40;41.60;;;;;;5956594;24;20390;-83
2021/07/24 10:04:48;;;;;;;13.60;12.40;;;23.40;41.60;;;;;;5970321;23;20395;-81
2021/07/24 10:11:22;;;;;;;13.97;12.73;;;23.40;41.70;;;;;;5929627;24;20372;-80
2021/07/24 10:14:53;;;;;;;13.90;12.80;;;23.40;41.60;;;;;;5929991;24;20376;-79
2021/07/24 10:21:57;;;;;;;14.93;13.53;;;23.40;41.70;;;;;;5849623;24;20393;-82
2021/07/24 10:39:11;;;;;;;14.00;12.77;;;23.50;41.60;;;;;;5893304;24;20490;-80
2021/07/24 10:49:34;;;;;;;14.03;12.77;;;23.50;41.60;;;;;;6134440;23;20453;-83
2021/07/24 11:10:04;;;;;;;13.13;12.03;;;23.60;41.40;;;;;;6249733;23;20401;-81
2021/07/24 11:13:10;;;;;;;12.97;11.97;;;23.60;41.40;;;;;;6200995;23;20456;-82
2021/07/24 11:16:45;;;;;;;13.20;12.00;;;23.60;41.30;;;;;;6222624;23;20820;-82
2021/07/24 11:23:44;;;;;;;12.60;11.50;;;23.60;41.10;;;;;;6188022;23;20402;-82
2021/07/24 11:27:01;;;;;;;12.20;11.30;;;23.60;41.10;;;;;;6089609;23;20929;-83
2021/07/24 11:29:57;;;;;;;12.73;11.73;;;23.60;41.10;;;;;;6062917;23;20415;-83
2021/07/24 11:33:44;;;;;;;12.07;11.07;;;23.60;41.10;;;;;;6130795;23;20386;-82
2021/07/24 11:37:09;;;;;;;12.30;11.30;;;23.60;41.00;;;;;;6122666;23;20469;-82
2021/07/24 11:40:16;;;;;;;12.60;11.60;;;23.60;41.00;;;;;;6129269;23;20398;-82
2021/07/24 11:46:11;;;;;;;11.83;10.80;;;23.50;40.80;;;;;;6187249;23;20415;-83
2021/07/24 12:14:23;;;;;;;10.90;10.00;;;23.60;40.80;;;;;;6280305;22;20376;-83
2021/07/24 12:17:51;;;;;;;10.17;9.27;;;23.60;40.80;;;;;;6280019;22;20452;-82
2021/07/24 12:20:47;;;;;;;11.67;10.50;;;23.60;41.00;;;;;;6279491;22;20502;-82
2021/07/24 12:24:30;;;;;;;11.67;10.47;;;23.50;40.60;;;;;;6279775;22;20372;-82
2021/07/24 12:27:29;;;;;;;11.67;10.67;;;23.60;40.50;;;;;;6284279;22;20428;-83
2021/07/24 12:30:52;;;;;;;11.30;10.17;;;23.60;40.50;;;;;;6282256;22;20427;-80
2021/07/24 12:33:58;;;;;;;10.70;9.90;;;23.60;40.50;;;;;;6280044;22;20379;-81
2021/07/24 12:37:14;;;;;;;10.67;9.60;;;23.60;40.60;;;;;;6280803;22;20392;-81
2021/07/24 12:40:30;;;;;;;10.50;9.30;;;23.60;40.50;;;;;;6277540;22;20409;-81
2021/07/24 12:43:30;;;;;;;10.73;9.63;;;23.60;40.20;;;;;;6277754;22;20760;-82
2021/07/24 12:46:36;;;;;;;10.60;9.80;;;23.60;40.00;;;;;;6293907;22;20420;-82
2021/07/24 12:50:03;;;;;;;10.77;9.97;;;23.60;40.00;;;;;;6276993;22;20432;-83
2021/07/24 12:53:50;;;;;;;11.00;10.10;;;23.60;40.00;;;;;;6210658;22;20478;-82
2021/07/24 12:57:11;;;;;;;10.37;9.47;;;23.60;40.00;;;;;;6305410;22;20933;-82
2021/07/24 13:00:32;;;;;;;9.30;8.60;;;23.60;39.80;;;;;;6255749;22;20421;-82
2021/07/24 13:04:01;;;;;;;10.73;9.93;;;23.60;39.90;;;;;;6276722;22;20864;-81
2021/07/24 13:14:40;;;;;;;9.47;8.73;;;23.60;39.50;;;;;;6129920;23;20381;-83
2021/07/24 13:17:24;;;;;;;9.83;9.03;;;23.60;39.50;;;;;;6103137;23;20747;-82
2021/07/24 13:20:29;;;;;;;9.40;8.70;;;23.60;39.60;;;;;;6077442;23;20406;-83
2021/07/24 13:29:52;;;;;;;11.00;10.10;;;23.60;39.60;;;;;;6119601;23;20405;-82
2021/07/24 13:35:54;;;;;;;10.40;9.43;;;23.60;39.50;;;;;;6216223;23;20382;-82
2021/07/24 13:45:35;;;;;;;9.00;8.30;;;23.60;39.50;;;;;;6306805;22;20345;-81
2021/07/24 13:49:15;;;;;;;9.53;8.77;;;23.60;39.60;;;;;;6245307;23;20449;-82
2021/07/24 13:52:53;;;;;;;9.10;8.50;;;23.60;39.60;;;;;;6098531;23;20389;-81
2021/07/24 13:56:36;;;;;;;10.27;9.47;;;23.60;39.60;;;;;;6090477;23;20379;-80
2021/07/24 14:06:58;;;;;;;10.63;9.70;;;23.60;39.60;;;;;;6066752;23;20476;-83
2021/07/24 14:20:45;;;;;;;9.60;8.70;;;23.60;39.40;;;;;;6040500;23;20821;-80
2021/07/24 14:28:09;;;;;;;10.40;9.50;;;23.60;39.50;;;;;;5981518;23;20512;-80
2021/07/24 14:38:19;;;;;;;9.37;8.67;;;23.70;39.80;;;;;;5996775;23;20800;-81
2021/07/24 14:41:56;;;;;;;10.20;9.37;;;23.60;39.70;;;;;;6009190;23;20397;-79
2021/07/24 14:45:25;;;;;;;9.10;8.30;;;23.60;39.70;;;;;;5980764;23;20390;-79
2021/07/24 15:19:55;;;;;;;9.10;8.50;;;23.60;39.40;;;;;;6311390;22;20436;-80
2021/07/24 15:22:48;;;;;;;10.67;9.83;;;23.70;39.50;;;;;;6244276;22;20396;-80
2021/07/24 16:34:26;;;;;;;10.43;9.33;;;23.70;45.00;;;;;;5068521;28;20607;-58
2021/07/24 16:36:51;;;;;;;10.87;9.90;;;24.40;42.60;;;;;;5068647;28;20436;-57
2021/07/24 16:39:17;;;;;;;11.13;10.13;;;24.80;40.70;;;;;;5068606;28;20199;-54
2021/07/24 16:41:42;;;;;;;11.63;10.63;;;25.00;40.10;;;;;;5068713;28;20170;-55
2021/07/24 16:44:08;;;;;;;10.37;9.47;;;25.10;39.20;;;;;;5068535;28;20179;-54
2021/07/24 16:46:35;;;;;;;9.73;8.90;;;25.30;38.60;;;;;;5068584;28;20191;-56
2021/07/24 16:49:00;;;;;;;9.40;8.70;;;25.40;38.20;;;;;;5068965;28;20473;-55
2021/07/24 16:51:26;;;;;;;10.47;9.47;;;25.50;37.80;;;;;;5054821;28;20523;-55
2021/07/24 16:53:51;;;;;;;10.90;10.00;;;25.60;37.50;;;;;;5048324;28;20208;-57
2021/07/24 17:06:19;;;;;;;9.43;8.73;;;25.60;36.20;;;;;;5068455;28;20595;-68
2021/07/24 17:08:45;;;;;;;9.57;8.87;;;25.50;37.00;;;;;;5069194;28;20517;-67
2021/07/24 17:11:10;;;;;;;9.33;8.63;;;25.40;37.20;;;;;;5067976;28;20924;-68
2021/07/24 17:13:37;;;;;;;9.37;8.57;;;25.30;37.40;;;;;;5067489;28;20173;-68
2021/07/24 17:16:09;;;;;;;10.00;9.17;;;25.20;37.50;;;;;;5068751;28;20254;-67
2021/07/24 17:18:36;;;;;;;9.17;8.43;;;25.20;37.60;;;;;;5068972;28;20929;-67
2021/07/24 17:21:08;;;;;;;9.97;9.17;;;25.20;37.60;;;;;;5068709;28;20406;-67
2021/07/24 17:23:34;;;;;;;8.57;7.77;;;25.10;37.60;;;;;;5068950;28;20413;-67
2021/07/24 17:26:04;;;;;;;8.90;8.03;;;25.10;37.60;;;;;;5068398;28;20508;-67
2021/07/24 17:28:30;;;;;;;8.67;8.03;;;25.10;37.70;;;;;;5068809;28;20287;-68
2021/07/24 17:30:55;;;;;;;8.80;8.10;;;25.10;37.80;;;;;;5068775;28;20497;-68
2021/07/24 17:33:21;;;;;;;8.13;7.43;;;25.10;37.80;;;;;;5061139;28;20638;-70
2021/07/24 17:35:46;;;;;;;8.50;7.90;;;25.10;37.80;;;;;;5058295;28;20180;-69
2021/07/24 17:38:12;;;;;;;8.87;8.17;;;25.10;37.80;;;;;;5059532;28;20242;-70
2021/07/24 17:40:42;;;;;;;10.00;9.03;;;25.10;37.80;;;;;;5057515;28;20180;-70
2021/07/24 17:43:07;;;;;;;8.83;8.13;;;25.10;37.90;;;;;;5058461;28;20180;-70
2021/07/24 17:45:33;;;;;;;9.17;8.47;;;25.10;38.60;;;;;;5058244;28;20469;-70
2021/07/24 17:47:58;;;;;;;8.37;7.57;;;25.10;38.00;;;;;;5057489;28;20603;-68
2021/07/24 17:50:24;;;;;;;8.30;7.60;;;25.10;38.00;;;;;;5058999;28;20163;-68
2021/07/24 17:52:49;;;;;;;21.27;8.30;;;25.10;38.00;;;;;;5059188;28;20243;-68
2021/07/24 17:55:15;;;;;;;9.40;8.60;;;25.10;38.00;;;;;;5050838;28;20208;-67
2021/07/24 17:57:40;;;;;;;8.60;7.90;;;25.10;38.00;;;;;;5048243;28;20176;-67
2021/07/24 18:00:07;;;;;;;11.40;8.23;;;25.10;38.00;;;;;;5048549;28;20263;-67
2021/07/24 18:02:32;;;;;;;8.47;7.77;;;25.10;37.90;;;;;;5048370;28;20176;-67
2021/07/24 18:04:58;;;;;;;8.63;7.80;;;25.10;38.00;;;;;;5047602;28;20749;-68
2021/07/24 18:07:23;;;;;;;9.10;8.27;;;25.10;37.90;;;;;;5065015;28;20189;-66
2021/07/24 18:09:49;;;;;;;8.70;7.90;;;25.10;37.90;;;;;;5067737;28;20199;-66
2021/07/24 18:12:14;;;;;;;9.50;8.50;;;25.10;38.00;;;;;;5067563;28;20250;-66
2021/07/24 18:14:40;;;;;;;13.63;8.80;;;25.10;38.00;;;;;;5067783;28;20171;-67
2021/07/24 18:17:05;;;;;;;14.50;9.30;;;25.10;38.00;;;;;;5057269;28;20176;-67
2021/07/24 18:19:31;;;;;;;14.77;11.40;;;25.10;38.20;;;;;;5054887;28;20196;-67
2021/07/24 18:21:56;;;;;;;13.63;12.30;;;25.10;38.30;;;;;;5054683;28;20255;-67
2021/07/24 18:24:22;;;;;;;14.37;12.37;;;25.10;38.40;;;;;;5054392;28;20257;-67
2021/07/24 18:26:47;;;;;;;17.43;14.30;;;25.10;38.40;;;;;;5054521;28;20263;-67
2021/07/24 18:29:13;;;;;;;15.13;13.23;;;25.10;38.50;;;;;;5053879;28;20195;-67
2021/07/24 18:31:38;;;;;;;15.47;13.67;;;25.10;38.50;;;;;;5044804;28;20172;-66
2021/07/24 18:34:04;;;;;;;18.10;13.53;;;25.10;38.60;;;;;;5050885;28;20189;-66
2021/07/24 18:36:30;;;;;;;18.57;13.47;;;25.20;38.60;;;;;;5061389;28;20179;-66
2021/07/24 18:38:55;;;;;;;18.97;12.63;;;25.20;38.50;;;;;;5071535;28;20187;-66
2021/07/24 18:41:21;;;;;;;20.40;13.57;;;25.10;38.40;;;;;;5072650;28;20171;-66
2021/07/24 18:43:46;;;;;;;19.13;12.83;;;25.10;38.50;;;;;;5074168;28;20167;-66
2021/07/24 18:46:12;;;;;;;15.93;11.83;;;25.20;38.70;;;;;;5073300;28;20167;-66
2021/07/24 18:48:39;;;;;;;13.40;11.27;;;25.10;38.70;;;;;;5073584;28;20195;-66
2021/07/24 18:51:04;;;;;;;15.10;12.07;;;25.20;38.90;;;;;;5073328;28;20172;-66
2021/07/24 18:53:30;;;;;;;17.73;10.63;;;25.20;39.50;;;;;;5034111;28;20489;-65
2021/07/24 18:55:56;;;;;;;13.27;10.53;;;25.10;39.70;;;;;;5033600;28;20251;-66
2021/07/24 18:58:21;;;;;;;13.20;11.63;;;25.20;39.90;;;;;;5033268;28;20200;-65
2021/07/24 19:00:47;;;;;;;16.17;11.83;;;25.10;39.90;;;;;;5033542;28;20599;-66
2021/07/24 19:03:12;;;;;;;14.70;12.03;;;25.20;40.50;;;;;;5046139;28;20628;-66
2021/07/24 19:05:42;;;;;;;12.47;11.27;;;25.10;40.20;;;;;;5074296;28;20286;-66
2021/07/24 19:08:07;;;;;;;12.50;11.17;;;25.20;40.10;;;;;;5073780;28;20202;-66
2021/07/24 19:10:33;;;;;;;12.47;11.17;;;25.10;39.90;;;;;;5073185;28;20402;-65
2021/07/24 19:12:59;;;;;;;11.60;10.40;;;25.20;39.90;;;;;;5073738;28;20497;-65
2021/07/24 19:15:25;;;;;;;16.53;10.77;;;25.20;39.90;;;;;;5073329;28;20200;-66
2021/07/24 19:17:52;;;;;;;12.67;11.50;;;25.20;39.90;;;;;;5073109;28;20544;-66
2021/07/24 19:20:17;;;;;;;12.20;10.90;;;25.20;40.00;;;;;;5073453;28;20412;-66
2021/07/24 19:22:44;;;;;;;13.53;11.53;;;25.20;40.20;;;;;;5073043;28;20405;-66
2021/07/24 19:25:11;;;;;;;12.57;11.00;;;25.10;40.10;;;;;;5072977;28;20580;-65
2021/07/24 19:27:36;;;;;;;13.43;10.30;;;25.20;40.30;;;;;;5072386;28;20776;-65
2021/07/24 19:30:02;;;;;;;14.23;10.33;;;25.20;40.50;;;;;;5073024;28;20413;-65
2021/07/24 19:32:27;;;;;;;13.90;11.03;;;25.20;41.10;;;;;;5044290;28;20203;-66
2021/07/24 19:34:53;;;;;;;11.90;10.67;;;25.20;40.80;;;;;;5032826;28;20247;-66
2021/07/24 19:37:18;;;;;;;11.27;10.10;;;25.20;41.30;;;;;;5032994;28;20181;-66
2021/07/24 19:39:44;;;;;;;11.53;10.47;;;25.20;41.30;;;;;;5032692;28;20200;-65
2021/07/24 19:42:09;;;;;;;11.47;10.30;;;25.20;41.30;;;;;;5040921;28;20272;-65
2021/07/24 19:44:35;;;;;;;14.03;10.93;;;25.20;41.20;;;;;;5042869;28;20689;-66
2021/07/24 19:47:00;;;;;;;14.53;10.50;;;25.20;40.90;;;;;;5042236;28;20177;-66
2021/07/24 19:49:26;;;;;;;17.10;11.87;;;25.20;40.80;;;;;;5032409;28;20196;-66
2021/07/24 19:51:51;;;;;;;13.10;9.50;;;25.20;41.00;;;;;;5049599;28;20194;-66
2021/07/24 19:54:17;;;;;;;11.43;10.33;;;25.20;41.00;;;;;;5052314;28;20211;-65
2021/07/24 19:56:43;;;;;;;12.57;9.50;;;25.20;41.10;;;;;;5052436;28;20215;-65
2021/07/24 19:59:09;;;;;;;11.23;10.07;;;25.20;40.90;;;;;;5052560;28;20587;-66
2021/07/24 20:01:35;;;;;;;10.23;9.30;;;25.20;40.80;;;;;;5052261;28;20421;-66
2021/07/24 20:04:02;;;;;;;9.40;8.50;;;25.20;40.80;;;;;;5052462;28;20184;-66
2021/07/24 20:06:27;;;;;;;10.07;8.40;;;25.20;40.90;;;;;;5052151;28;20425;-66
2021/07/24 20:08:53;;;;;;;9.90;8.80;;;25.20;40.80;;;;;;5052256;28;20912;-66
2021/07/24 20:11:18;;;;;;;9.70;8.37;;;25.20;40.80;;;;;;5052380;28;20176;-66
2021/07/24 20:13:44;;;;;;;10.10;9.10;;;25.20;40.90;;;;;;5052387;28;20179;-65
2021/07/24 20:16:10;;;;;;;10.17;8.23;;;25.20;40.80;;;;;;5052176;28;20179;-65
2021/07/24 20:18:35;;;;;;;10.23;7.07;;;25.20;40.90;;;;;;5042645;28;20215;-65
2021/07/24 20:21:01;;;;;;;8.57;7.77;;;25.30;40.90;;;;;;5032032;28;20234;-65
2021/07/24 20:23:26;;;;;;;9.53;8.53;;;25.20;40.90;;;;;;5036258;28;20175;-65
2021/07/24 20:25:54;;;;;;;8.23;7.53;;;25.20;40.90;;;;;;5061563;28;20210;-65
2021/07/24 20:28:20;;;;;;;11.93;7.57;;;25.30;41.00;;;;;;5040127;28;20287;-65
2021/07/24 20:30:45;;;;;;;7.67;6.97;;;25.30;41.10;;;;;;5041073;28;20439;-65
2021/07/24 20:33:11;;;;;;;7.83;6.00;;;25.20;41.10;;;;;;5041084;28;20250;-65
2021/07/24 20:35:36;;;;;;;8.30;7.50;;;25.30;41.10;;;;;;5047949;28;20212;-66
2021/07/24 20:38:02;;;;;;;7.80;7.00;;;25.30;41.20;;;;;;5052114;28;20570;-65
2021/07/24 20:40:29;;;;;;;8.80;7.00;;;25.30;41.10;;;;;;5051778;28;20560;-66
2021/07/24 20:42:54;;;;;;;6.13;5.63;;;25.30;41.20;;;;;;5052034;28;20485;-65
2021/07/24 20:45:20;;;;;;;7.13;6.37;;;25.20;41.10;;;;;;5051474;28;20545;-66
2021/07/24 20:47:45;;;;;;;5.93;5.40;;;25.30;41.10;;;;;;5051553;28;20215;-66
2021/07/24 20:50:11;;;;;;;6.70;6.10;;;25.30;41.10;;;;;;5051868;28;20611;-66
2021/07/24 20:52:37;;;;;;;6.97;6.27;;;25.30;41.30;;;;;;5052038;28;20167;-66
2021/07/24 20:55:03;;;;;;;6.80;6.13;;;25.30;41.30;;;;;;5051155;28;20218;-66
2021/07/24 20:57:29;;;;;;;6.60;6.00;;;25.30;41.20;;;;;;5051623;28;20450;-66
2021/07/24 20:59:57;;;;;;;7.10;6.37;;;25.30;41.10;;;;;;5051733;28;20430;-66
2021/07/24 21:02:23;;;;;;;6.87;6.37;;;25.30;41.10;;;;;;5051813;28;20666;-66
2021/07/24 21:04:49;;;;;;;6.80;6.17;;;25.30;41.10;;;;;;5051123;28;20507;-66
2021/07/24 21:07:14;;;;;;;6.93;6.03;;;25.30;41.00;;;;;;5051622;28;20525;-66
2021/07/24 21:09:40;;;;;;;6.73;6.13;;;25.30;41.00;;;;;;5051338;28;20219;-66
2021/07/24 21:12:06;;;;;;;7.47;5.47;;;25.30;41.00;;;;;;5051727;28;20176;-66
2021/07/24 21:14:34;;;;;;;7.40;6.60;;;25.30;41.00;;;;;;5051484;28;20250;-66
2021/07/24 21:17:00;;;;;;;6.00;5.50;;;25.30;41.00;;;;;;5051425;28;20410;-66
2021/07/24 21:19:25;;;;;;;7.00;6.30;;;25.30;41.00;;;;;;5051671;28;20453;-65
2021/07/24 21:21:51;;;;;;;10.63;5.93;;;25.30;41.00;;;;;;5047263;28;20926;-66
2021/07/24 21:24:17;;;;;;;6.77;6.13;;;25.30;41.20;;;;;;5031353;28;20208;-65
2021/07/24 21:26:42;;;;;;;6.20;5.60;;;25.30;41.20;;;;;;5030485;28;20513;-66
2021/07/24 21:29:08;;;;;;;6.73;6.00;;;25.30;41.30;;;;;;5030527;28;20185;-66
2021/07/24 21:31:34;;;;;;;8.07;5.43;;;25.30;41.30;;;;;;5031445;28;20261;-65
2021/07/24 21:34:01;;;;;;;7.20;6.03;;;25.30;41.30;;;;;;5031996;28;20279;-66
2021/07/24 21:36:26;;;;;;;9.60;5.60;;;25.30;41.50;;;;;;5031633;28;20403;-66
2021/07/24 21:38:52;;;;;;;6.33;5.73;;;25.30;41.60;;;;;;5031191;28;20853;-65
2021/07/24 21:41:17;;;;;;;7.30;5.27;;;25.30;41.70;;;;;;5031979;28;20192;-66
2021/07/24 21:43:43;;;;;;;5.40;4.90;;;25.30;42.00;;;;;;5031897;28;20208;-65
2021/07/24 21:46:08;;;;;;;4.57;4.17;;;25.30;42.00;;;;;;5030983;28;20208;-65
2021/07/24 21:48:34;;;;;;;6.30;5.33;;;25.20;42.10;;;;;;5031565;28;20662;-66
2021/07/24 21:50:59;;;;;;;6.10;5.60;;;25.20;42.20;;;;;;5032350;28;20177;-66
2021/07/24 21:53:26;;;;;;;6.07;4.83;;;25.20;42.30;;;;;;5035336;28;20181;-66
2021/07/24 21:55:52;;;;;;;5.17;4.70;;;25.20;42.40;;;;;;5035078;28;20187;-66
2021/07/24 21:58:20;;;;;;;5.87;5.37;;;25.20;42.60;;;;;;5035014;28;20438;-66
2021/07/24 22:00:47;;;;;;;6.30;5.10;;;25.20;42.60;;;;;;5034525;28;20419;-66
2021/07/24 22:03:13;;;;;;;5.07;4.67;;;25.10;42.60;;;;;;5034992;28;20449;-66
2021/07/24 22:05:40;;;;;;;6.23;5.10;;;25.10;42.70;;;;;;5034359;28;20470;-66
2021/07/24 22:08:06;;;;;;;5.80;5.23;;;25.10;42.70;;;;;;5034511;28;20952;-66
2021/07/24 22:10:32;;;;;;;5.77;5.27;;;25.10;42.70;;;;;;5035105;28;20418;-66
2021/07/24 22:13:01;;;;;;;5.10;4.60;;;25.10;42.70;;;;;;5034770;28;20407;-66
2021/07/24 22:15:34;;;;;;;5.00;4.60;;;25.10;42.60;;;;;;5034074;28;20503;-66
2021/07/24 22:18:07;;;;;;;5.07;4.67;;;25.10;42.70;;;;;;5034837;28;21028;-66
2021/07/24 22:20:33;;;;;;;4.40;4.00;;;25.10;42.70;;;;;;5034801;28;20423;-66
2021/07/24 22:22:59;;;;;;;4.50;4.10;;;25.10;42.60;;;;;;5034515;28;20423;-66
2021/07/24 22:25:25;;;;;;;4.93;4.53;;;25.10;42.60;;;;;;5034449;28;20987;-66
2021/07/24 22:27:51;;;;;;;4.80;4.43;;;25.10;42.60;;;;;;5034694;28;20665;-66
2021/07/24 22:30:17;;;;;;;5.50;5.10;;;25.10;42.60;;;;;;5034823;28;20197;-66
2021/07/24 22:32:43;;;;;;;5.27;4.50;;;25.10;42.60;;;;;;5035773;28;20408;-65
2021/07/24 22:35:08;;;;;;;5.40;4.90;;;25.00;42.60;;;;;;5034905;28;20208;-66
2021/07/24 22:37:34;;;;;;;4.53;4.17;;;25.00;42.70;;;;;;5034110;28;20231;-66
2021/07/24 22:39:59;;;;;;;4.90;4.50;;;25.00;42.70;;;;;;5034278;28;20208;-66
2021/07/24 22:42:25;;;;;;;5.57;4.67;;;25.00;42.80;;;;;;5034737;28;20189;-66
2021/07/24 22:44:50;;;;;;;4.90;4.37;;;25.00;42.80;;;;;;5033510;28;20239;-65
2021/07/24 22:47:17;;;;;;;4.50;4.10;;;25.00;42.70;;;;;;5034269;28;20169;-65
2021/07/24 22:49:43;;;;;;;4.70;4.30;;;25.00;42.60;;;;;;5033968;28;20196;-66
2021/07/24 22:52:09;;;;;;;4.57;4.17;;;25.00;43.40;;;;;;5033751;28;20832;-66
2021/07/24 22:54:35;;;;;;;6.17;4.40;;;25.00;42.70;;;;;;5033878;28;20415;-66
2021/07/24 22:57:01;;;;;;;6.67;5.00;;;25.00;42.80;;;;;;5033744;28;20416;-65
2021/07/24 22:59:27;;;;;;;5.03;4.63;;;25.00;42.70;;;;;;5033566;28;20564;-66
2021/07/24 23:01:52;;;;;;;6.47;4.87;;;25.00;42.80;;;;;;5033804;28;20683;-65
2021/07/24 23:04:18;;;;;;;5.50;4.77;;;25.00;42.80;;;;;;5033479;28;20216;-65
2021/07/24 23:06:44;;;;;;;7.37;4.30;;;24.90;42.70;;;;;;5033255;28;20185;-65
2021/07/24 23:09:09;;;;;;;4.90;4.50;;;24.90;42.80;;;;;;5033683;28;20201;-65
2021/07/24 23:11:35;;;;;;;5.17;4.70;;;25.00;42.90;;;;;;5033565;28;20219;-66
2021/07/24 23:14:00;;;;;;;5.20;4.80;;;25.00;42.90;;;;;;5033247;28;20176;-66